createdAt,value
2019-05-29T00:00:51.665Z,99254.63
2019-05-29T00:03:22.891Z,99255.13
2019-05-29T00:05:52.115Z,99257.23
2019-05-29T00:08:21.403Z,99263.16
2019-05-29T00:10:50.715Z,99262.48
2019-05-29T00:13:20.009Z,99266.10
2019-05-29T00:15:49.320Z,99268.21
2019-05-29T00:18:18.682Z,99258.89
2019-05-29T00:20:47.924Z,99253.97
2019-05-29T00:23:17.284Z,99263.31
2019-05-29T00:25:46.682Z,99264.45
2019-05-29T00:28:16.787Z,99266.41
2019-05-29T00:30:46.273Z,99270.17
2019-05-29T00:33:15.596Z,99266.23
2019-05-29T00:35:45.038Z,99271.80
2019-05-29T00:38:14.732Z,99274.27
2019-05-29T00:40:44.360Z,99264.45
2019-05-29T00:43:13.654Z,99268.84
2019-05-29T00:45:42.975Z,99264.09
2019-05-29T00:48:12.441Z,99263.44
2019-05-29T00:50:42.190Z,99259.99
2019-05-29T00:53:12.170Z,99258.98
2019-05-29T00:55:42.122Z,99268.32
2019-05-29T00:58:11.430Z,99257.34
2019-05-29T01:00:40.828Z,99265.03
2019-05-29T01:03:10.043Z,99263.09
2019-05-29T01:05:39.337Z,99262.25
2019-05-29T01:08:08.672Z,99263.25
2019-05-29T01:10:38.099Z,99262.41
2019-05-29T01:13:07.330Z,99265.53
2019-05-29T01:15:36.716Z,99262.57
2019-05-29T01:18:06.152Z,99261.42
2019-05-29T01:20:35.440Z,99266.35
2019-05-29T01:23:04.926Z,99268.79
2019-05-29T01:25:34.231Z,99269.92
2019-05-29T01:28:03.587Z,99267.14
2019-05-29T01:30:32.829Z,99269.25
2019-05-29T01:33:02.196Z,99271.72
2019-05-29T01:35:31.489Z,99272.36
2019-05-29T01:38:00.890Z,99272.86
2019-05-29T01:40:30.264Z,99268.75
2019-05-29T01:42:59.496Z,99265.00
2019-05-29T01:45:28.912Z,99272.55
2019-05-29T01:47:58.197Z,99267.77
2019-05-29T01:50:27.919Z,99267.80
2019-05-29T01:52:57.533Z,99273.88
2019-05-29T01:55:27.890Z,99269.96
2019-05-29T01:57:57.517Z,99275.52
2019-05-29T02:00:28.491Z,99275.36
2019-05-29T02:02:57.847Z,99271.11
2019-05-29T02:05:28.283Z,99271.10
2019-05-29T02:07:57.762Z,99279.16
2019-05-29T02:10:27.276Z,99278.84
2019-05-29T02:12:56.617Z,99273.75
2019-05-29T02:15:32.486Z,99279.17
2019-05-29T02:17:57.055Z,99275.58
2019-05-29T02:20:27.176Z,99269.83
2019-05-29T02:22:56.607Z,99271.48
2019-05-29T02:25:26.364Z,99270.66
2019-05-29T02:27:56.696Z,99272.45
2019-05-29T02:30:30.231Z,99276.56
2019-05-29T02:32:57.378Z,99279.67
2019-05-29T02:35:28.819Z,99278.88
2019-05-29T02:37:57.827Z,99281.98
2019-05-29T02:40:29.489Z,99283.94
2019-05-29T02:42:58.583Z,99284.30
2019-05-29T02:45:50.814Z,99290.36
2019-05-29T02:47:58.963Z,99283.14
2019-05-29T02:50:29.313Z,99282.64
2019-05-29T02:52:59.445Z,99277.73
2019-05-29T02:55:28.999Z,99277.39
2019-05-29T02:57:58.789Z,99281.02
2019-05-29T03:00:45.949Z,99276.58
2019-05-29T03:03:15.251Z,99280.68
2019-05-29T03:05:44.683Z,99283.97
2019-05-29T03:08:14.203Z,99283.97
2019-05-29T03:10:43.554Z,99290.99
2019-05-29T03:13:12.928Z,99290.34
2019-05-29T03:15:42.270Z,99291.82
2019-05-29T03:18:11.617Z,99291.82
2019-05-29T03:20:41.006Z,99291.66
2019-05-29T03:23:10.409Z,99295.93
2019-05-29T03:25:39.837Z,99293.31
2019-05-29T03:28:09.204Z,99295.77
2019-05-29T03:30:45.327Z,99299.21
2019-05-29T03:33:09.574Z,99296.27
2019-05-29T03:35:47.109Z,99300.84
2019-05-29T03:38:09.957Z,99304.28
2019-05-29T03:40:39.326Z,99305.92
2019-05-29T03:43:08.684Z,99303.31
2019-05-29T03:45:38.189Z,99300.19
2019-05-29T03:48:07.509Z,99300.70
2019-05-29T03:50:38.184Z,99304.31
2019-05-29T03:53:07.971Z,99311.55
2019-05-29T03:55:37.907Z,99312.02
2019-05-29T03:58:07.526Z,99312.70
2019-05-29T04:00:45.623Z,99315.80
2019-05-29T04:03:08.157Z,99315.80
2019-05-29T04:05:37.993Z,99316.95
2019-05-29T04:08:07.642Z,99324.32
2019-05-29T04:10:39.147Z,99326.15
2019-05-29T04:13:08.421Z,99326.46
2019-05-29T04:15:38.928Z,99329.89
2019-05-29T04:18:08.401Z,99331.05
2019-05-29T04:20:38.975Z,99329.91
2019-05-29T04:23:08.810Z,99332.20
2019-05-29T04:25:42.570Z,99334.50
2019-05-29T04:28:09.441Z,99330.20
2019-05-29T04:30:39.401Z,99325.59
2019-05-29T04:33:08.918Z,99337.41
2019-05-29T04:35:39.777Z,99331.49
2019-05-29T04:38:09.293Z,99339.04
2019-05-29T04:40:39.551Z,99347.89
2019-05-29T04:43:09.123Z,99347.56
2019-05-29T04:45:39.958Z,99349.18
2019-05-29T04:48:09.778Z,99357.73
2019-05-29T04:50:40.566Z,99353.45
2019-05-29T04:53:10.050Z,99363.63
2019-05-29T04:55:39.264Z,99364.60
2019-05-29T04:58:08.564Z,99368.87
2019-05-29T05:00:37.833Z,99376.09
2019-05-29T05:03:07.197Z,99378.38
2019-05-29T05:05:37.436Z,99382.48
2019-05-29T05:08:07.052Z,99378.34
2019-05-29T05:10:40.618Z,99384.73
2019-05-29T05:13:10.137Z,99386.51
2019-05-29T05:15:40.106Z,99392.91
2019-05-29T05:18:10.148Z,99388.63
2019-05-29T05:20:40.360Z,99391.37
2019-05-29T05:23:10.043Z,99391.72
2019-05-29T05:25:40.820Z,99383.94
2019-05-29T05:28:10.460Z,99385.70
2019-05-29T05:30:40.775Z,99381.93
2019-05-29T05:33:10.291Z,99384.63
2019-05-29T05:35:40.731Z,99386.91
2019-05-29T05:38:10.440Z,99386.86
2019-05-29T05:40:42.737Z,99387.30
2019-05-29T05:43:23.221Z,99388.00
2019-05-29T05:45:41.763Z,99391.13
2019-05-29T05:48:11.184Z,99390.75
2019-05-29T05:50:41.485Z,99395.50
2019-05-29T05:53:11.129Z,99384.48
2019-05-29T05:55:41.728Z,99380.50
2019-05-29T05:58:11.339Z,99390.40
2019-05-29T06:00:41.938Z,99387.48
2019-05-29T06:03:11.344Z,99390.52
2019-05-29T06:05:40.641Z,99390.69
2019-05-29T06:08:10.049Z,99394.33
2019-05-29T06:10:40.277Z,99396.98
2019-05-29T06:13:09.680Z,99394.02
2019-05-29T06:15:43.131Z,99397.61
2019-05-29T06:18:21.144Z,99394.66
2019-05-29T06:20:43.701Z,99400.58
2019-05-29T06:23:13.140Z,99406.08
2019-05-29T06:25:43.888Z,99405.27
2019-05-29T06:28:13.325Z,99393.49
2019-05-29T06:30:44.934Z,99408.45
2019-05-29T06:33:14.445Z,99412.87
2019-05-29T06:35:43.892Z,99408.58
2019-05-29T06:38:13.573Z,99408.06
2019-05-29T06:40:44.593Z,99413.16
2019-05-29T06:43:21.928Z,99417.87
2019-05-29T06:45:51.571Z,99417.55
2019-05-29T06:48:42.684Z,99420.95
2019-05-29T06:51:00.785Z,99422.52
2019-05-29T06:53:30.144Z,99421.47
2019-05-29T06:56:01.751Z,99431.21
2019-05-29T06:58:31.500Z,99440.20
2019-05-29T07:01:00.872Z,99443.18
2019-05-29T07:03:30.216Z,99441.56
2019-05-29T07:05:59.507Z,99447.14
2019-05-29T07:08:39.013Z,99442.80
2019-05-29T07:10:59.961Z,99448.59
2019-05-29T07:13:29.401Z,99444.59
2019-05-29T07:15:58.858Z,99445.08
2019-05-29T07:18:28.192Z,99445.89
2019-05-29T07:20:58.451Z,99448.70
2019-05-29T07:23:27.739Z,99448.23
2019-05-29T07:25:57.166Z,99452.48
2019-05-29T07:28:26.519Z,99449.20
2019-05-29T07:31:01.882Z,99449.28
2019-05-29T07:33:27.022Z,99459.02
2019-05-29T07:35:56.382Z,99455.88
2019-05-29T07:38:25.853Z,99454.28
2019-05-29T07:40:55.268Z,99455.34
2019-05-29T07:43:24.576Z,99446.20
2019-05-29T07:45:53.936Z,99452.56
2019-05-29T07:48:23.357Z,99451.03
2019-05-29T07:51:06.237Z,99460.52
2019-05-29T07:53:23.966Z,99460.81
2019-05-29T07:55:53.526Z,99456.96
2019-05-29T07:58:22.968Z,99456.10
2019-05-29T08:01:09.277Z,99459.13
2019-05-29T08:03:23.542Z,99456.72
2019-05-29T08:05:53.436Z,99456.00
2019-05-29T08:08:23.063Z,99454.62
2019-05-29T08:10:52.583Z,99452.80
2019-05-29T08:13:21.877Z,99454.95
2019-05-29T08:16:01.531Z,99461.23
2019-05-29T08:18:22.324Z,99463.22
2019-05-29T08:20:51.757Z,99462.61
2019-05-29T08:23:21.102Z,99464.05
2019-05-29T08:25:51.784Z,99469.71
2019-05-29T08:28:21.367Z,99466.92
2019-05-29T08:30:55.704Z,99466.19
2019-05-29T08:33:21.822Z,99471.64
2019-05-29T08:35:59.420Z,99471.34
2019-05-29T08:38:22.114Z,99475.14
2019-05-29T08:40:51.582Z,99470.77
2019-05-29T08:43:20.930Z,99472.95
2019-05-29T08:45:50.282Z,99466.32
2019-05-29T08:48:19.618Z,99460.64
2019-05-29T08:50:49.970Z,99465.33
2019-05-29T08:53:19.349Z,99467.91
2019-05-29T08:55:49.242Z,99467.30
2019-05-29T08:58:19.125Z,99467.53
2019-05-29T09:00:53.211Z,99464.28
2019-05-29T09:03:19.836Z,99465.89
2019-05-29T09:06:04.954Z,99468.27
2019-05-29T09:08:20.123Z,99465.89
2019-05-29T09:10:49.725Z,99466.77
2019-05-29T09:13:19.326Z,99468.39
2019-05-29T09:15:48.689Z,99473.20
2019-05-29T09:18:19.631Z,99478.47
2019-05-29T09:21:02.837Z,99472.02
2019-05-29T09:23:20.944Z,99475.80
2019-05-29T09:25:50.346Z,99475.58
2019-05-29T09:28:20.337Z,99477.69
2019-05-29T09:30:49.738Z,99486.19
2019-05-29T09:33:21.339Z,99488.72
2019-05-29T09:35:50.069Z,99473.03
2019-05-29T09:38:20.848Z,99489.95
2019-05-29T09:40:52.718Z,99485.91
2019-05-29T09:43:27.033Z,99486.34
2019-05-29T09:45:52.698Z,99487.24
2019-05-29T09:48:25.315Z,99492.53
2019-05-29T09:50:53.263Z,99490.60
2019-05-29T09:53:22.566Z,99498.59
2019-05-29T09:55:52.288Z,99490.94
2019-05-29T09:58:23.010Z,99493.09
2019-05-29T10:01:09.594Z,99491.09
2019-05-29T10:03:23.624Z,99494.68
2019-05-29T10:05:54.228Z,99495.42
2019-05-29T10:08:24.104Z,99495.27
2019-05-29T10:11:01.427Z,99487.66
2019-05-29T10:13:24.558Z,99474.75
2019-05-29T10:15:54.076Z,99461.59
2019-05-29T10:18:31.900Z,99467.34
2019-05-29T10:20:56.554Z,99478.16
2019-05-29T10:23:27.232Z,99478.70
2019-05-29T10:25:58.264Z,99477.41
2019-05-29T10:28:27.688Z,99475.55
2019-05-29T10:30:57.172Z,99469.09
2019-05-29T10:33:26.537Z,99469.89
2019-05-29T10:35:56.043Z,99460.97
2019-05-29T10:38:25.589Z,99468.33
2019-05-29T10:41:05.591Z,99464.41
2019-05-29T10:43:34.031Z,99465.96
2019-05-29T10:45:57.255Z,99465.16
2019-05-29T10:48:26.692Z,99463.17
2019-05-29T10:50:56.056Z,99460.02
2019-05-29T10:53:25.487Z,99455.72
2019-05-29T10:55:55.060Z,99448.65
2019-05-29T10:58:24.351Z,99440.34
2019-05-29T11:00:53.654Z,99434.66
2019-05-29T11:03:22.966Z,99438.42
2019-05-29T11:05:53.691Z,99439.88
2019-05-29T11:08:23.304Z,99439.36
2019-05-29T11:10:52.664Z,99430.38
2019-05-29T11:13:22.936Z,99425.88
2019-05-29T11:15:52.834Z,99418.61
2019-05-29T11:18:22.328Z,99420.20
2019-05-29T11:20:51.750Z,99407.37
2019-05-29T11:23:21.312Z,99414.16
2019-05-29T11:25:51.964Z,99409.83
2019-05-29T11:28:22.406Z,99411.94
2019-05-29T11:30:53.559Z,99407.69
2019-05-29T11:33:23.102Z,99397.09
2019-05-29T11:36:06.342Z,99389.42
2019-05-29T11:38:23.576Z,99389.34
2019-05-29T11:41:20.460Z,99385.77
2019-05-29T11:43:24.285Z,99381.61
2019-05-29T11:45:53.642Z,99379.18
2019-05-29T11:48:23.002Z,99383.25
2019-05-29T11:50:52.413Z,99385.90
2019-05-29T11:53:22.185Z,99393.81
2019-05-29T11:55:52.391Z,99408.04
2019-05-29T11:58:31.202Z,99416.97
2019-05-29T12:00:53.704Z,99405.15
2019-05-29T12:03:23.091Z,99393.72
2019-05-29T12:05:53.545Z,99394.66
2019-05-29T12:08:22.810Z,99403.76
2019-05-29T12:10:53.180Z,99411.41
2019-05-29T12:13:22.890Z,99408.39
2019-05-29T12:15:53.556Z,99406.70
2019-05-29T12:18:24.553Z,99416.37
2019-05-29T12:20:54.374Z,99414.50
2019-05-29T12:23:26.795Z,99418.25
2019-05-29T12:26:12.849Z,99433.20
2019-05-29T12:28:26.357Z,99444.35
2019-05-29T12:30:56.926Z,99448.23
2019-05-29T12:33:26.294Z,99451.86
2019-05-29T12:35:56.883Z,99454.22
2019-05-29T12:38:26.535Z,99456.56
2019-05-29T12:40:57.586Z,99457.92
2019-05-29T12:43:28.203Z,99466.75
2019-05-29T12:45:57.928Z,99471.97
2019-05-29T12:48:27.351Z,99465.33
2019-05-29T12:50:58.249Z,99471.19
2019-05-29T12:53:30.735Z,99478.78
2019-05-29T12:56:00.561Z,99476.00
2019-05-29T12:58:30.271Z,99483.49
2019-05-29T13:01:00.663Z,99483.88
2019-05-29T13:03:30.199Z,99523.23
2019-05-29T13:06:00.411Z,99538.53
2019-05-29T13:08:29.971Z,99532.51
2019-05-29T13:11:00.417Z,99554.16
2019-05-29T13:13:29.966Z,99559.47
2019-05-29T13:16:00.745Z,99586.52
2019-05-29T13:18:30.333Z,99579.73
2019-05-29T13:21:00.897Z,99590.89
2019-05-29T13:23:44.208Z,99600.00
2019-05-29T13:26:01.516Z,99626.75
2019-05-29T13:28:45.822Z,99615.99
2019-05-29T13:31:18.372Z,99610.55
2019-05-29T13:33:47.739Z,99600.14
2019-05-29T13:36:17.149Z,99598.61
2019-05-29T13:38:46.516Z,99588.45
2019-05-29T13:41:15.816Z,99584.53
2019-05-29T13:43:45.134Z,99578.84
2019-05-29T13:46:14.435Z,99582.98
2019-05-29T13:48:45.296Z,99554.97
2019-05-29T13:51:14.624Z,99547.19
2019-05-29T13:53:43.912Z,99549.07
2019-05-29T13:56:16.146Z,99536.61
2019-05-29T13:58:44.529Z,99540.22
2019-05-29T14:01:13.826Z,99554.67
2019-05-29T14:03:43.183Z,99554.55
2019-05-29T14:06:12.605Z,99559.53
2019-05-29T14:08:41.882Z,99559.84
2019-05-29T14:11:11.174Z,99563.34
2019-05-29T14:13:40.586Z,99562.22
2019-05-29T14:16:10.475Z,99560.27
2019-05-29T14:18:39.859Z,99559.77
2019-05-29T14:21:09.392Z,99568.49
2019-05-29T14:23:39.729Z,99577.22
2019-05-29T14:26:09.426Z,99575.23
2019-05-29T14:28:38.890Z,99578.41
2019-05-29T14:31:08.461Z,99579.07
2019-05-29T14:33:38.582Z,99580.88
2019-05-29T14:36:09.266Z,99589.73
2019-05-29T14:38:38.585Z,99599.44
2019-05-29T14:41:08.212Z,99601.90
2019-05-29T14:43:39.273Z,99603.22
2019-05-29T14:46:10.080Z,99607.98
2019-05-29T14:48:39.599Z,99610.62
2019-05-29T14:51:09.004Z,99606.49
2019-05-29T14:53:38.364Z,99607.64
2019-05-29T14:56:08.882Z,99607.63
2019-05-29T14:58:38.497Z,99612.87
2019-05-29T15:01:09.114Z,99606.09
2019-05-29T15:03:38.587Z,99602.49
2019-05-29T15:06:07.903Z,99592.14
2019-05-29T15:08:37.369Z,99590.23
2019-05-29T15:11:07.923Z,99590.39
2019-05-29T15:13:37.457Z,99580.19
2019-05-29T15:16:06.968Z,99582.63
2019-05-29T15:18:36.380Z,99583.77
2019-05-29T15:21:06.962Z,99580.00
2019-05-29T15:23:38.056Z,99573.45
2019-05-29T15:26:07.798Z,99575.77
2019-05-29T15:28:37.178Z,99565.91
2019-05-29T15:31:06.558Z,99572.17
2019-05-29T15:33:35.884Z,99573.80
2019-05-29T15:36:06.444Z,99571.69
2019-05-29T15:38:36.394Z,99572.48
2019-05-29T15:41:06.646Z,99568.54
2019-05-29T15:43:36.115Z,99571.83
2019-05-29T15:46:08.187Z,99576.44
2019-05-29T15:48:36.736Z,99579.56
2019-05-29T15:51:06.860Z,99580.70
2019-05-29T15:53:36.496Z,99584.32
2019-05-29T15:56:18.147Z,99578.09
2019-05-29T15:58:37.074Z,99583.50
2019-05-29T16:01:07.658Z,99583.32
2019-05-29T16:03:37.118Z,99596.61
2019-05-29T16:06:07.606Z,99602.04
2019-05-29T16:08:37.104Z,99608.45
2019-05-29T16:11:06.672Z,99615.52
2019-05-29T16:13:38.209Z,99617.35
2019-05-29T16:16:09.323Z,99623.43
2019-05-29T16:18:38.720Z,99625.23
2019-05-29T16:21:08.179Z,99618.33
2019-05-29T16:23:37.541Z,99621.45
2019-05-29T16:26:07.010Z,99643.31
2019-05-29T16:28:36.434Z,99652.30
2019-05-29T16:31:05.911Z,99654.29
2019-05-29T16:33:35.525Z,99662.02
2019-05-29T16:36:05.282Z,99664.97
2019-05-29T16:38:34.752Z,99674.31
2019-05-29T16:41:04.691Z,99673.98
2019-05-29T16:43:34.989Z,99682.53
2019-05-29T16:46:04.559Z,99681.91
2019-05-29T16:48:33.999Z,99681.24
2019-05-29T16:51:03.355Z,99685.62
2019-05-29T16:53:32.642Z,99679.89
2019-05-29T16:56:02.167Z,99675.64
2019-05-29T16:58:31.563Z,99670.59
2019-05-29T17:01:00.873Z,99668.05
2019-05-29T17:03:30.267Z,99678.70
2019-05-29T17:05:59.760Z,99675.19
2019-05-29T17:08:29.134Z,99664.07
2019-05-29T17:10:58.631Z,99665.40
2019-05-29T17:13:28.077Z,99661.63
2019-05-29T17:15:57.390Z,99656.21
2019-05-29T17:18:27.033Z,99659.55
2019-05-29T17:20:56.433Z,99656.62
2019-05-29T17:23:25.920Z,99661.25
2019-05-29T17:26:09.661Z,99663.12
2019-05-29T17:28:28.236Z,99663.15
2019-05-29T17:31:01.355Z,99670.56
2019-05-29T17:33:28.779Z,99672.89
2019-05-29T17:35:58.143Z,99679.93
2019-05-29T17:38:27.479Z,99680.44
2019-05-29T17:40:56.842Z,99682.91
2019-05-29T17:43:28.579Z,99691.61
2019-05-29T17:45:57.320Z,99709.86
2019-05-29T17:48:26.634Z,99715.41
2019-05-29T17:50:55.999Z,99718.66
2019-05-29T17:53:26.181Z,99720.94
2019-05-29T17:55:55.798Z,99719.80
2019-05-29T17:58:29.511Z,99726.51
2019-05-29T18:00:59.032Z,99726.80
2019-05-29T18:03:28.461Z,99728.74
2019-05-29T18:05:57.839Z,99739.88
2019-05-29T18:08:27.207Z,99745.11
2019-05-29T18:10:56.580Z,99760.19
2019-05-29T18:13:27.484Z,99770.53
2019-05-29T18:15:56.951Z,99777.25
2019-05-29T18:18:27.703Z,99780.70
2019-05-29T18:20:58.182Z,99787.85
2019-05-29T18:23:28.193Z,99791.78
2019-05-29T18:25:57.693Z,99785.53
2019-05-29T18:28:28.162Z,99789.47
2019-05-29T18:30:57.752Z,99789.78
2019-05-29T18:33:28.923Z,99790.09
2019-05-29T18:35:58.738Z,99789.09
2019-05-29T18:38:28.707Z,99790.24
2019-05-29T18:40:58.471Z,99799.59
2019-05-29T18:43:31.450Z,99802.68
2019-05-29T18:46:00.884Z,99803.98
2019-05-29T18:48:32.314Z,99800.82
2019-05-29T18:51:01.478Z,99810.00
2019-05-29T18:53:31.146Z,99820.66
2019-05-29T18:56:00.452Z,99833.73
2019-05-29T18:58:32.516Z,99839.13
2019-05-29T19:01:01.904Z,99839.63
2019-05-29T19:03:32.584Z,99842.88
2019-05-29T19:06:02.766Z,99843.87
2019-05-29T19:08:32.136Z,99843.17
2019-05-29T19:11:01.503Z,99847.72
2019-05-29T19:13:32.030Z,99847.67
2019-05-29T19:16:02.978Z,99848.23
2019-05-29T19:18:32.578Z,99853.78
2019-05-29T19:21:02.154Z,99853.62
2019-05-29T19:23:33.035Z,99860.77
2019-05-29T19:26:03.659Z,99868.09
2019-05-29T19:28:33.135Z,99867.58
2019-05-29T19:31:02.514Z,99872.30
2019-05-29T19:33:31.887Z,99872.59
2019-05-29T19:36:03.006Z,99875.52
2019-05-29T19:38:32.487Z,99876.42
2019-05-29T19:41:01.991Z,99890.82
2019-05-29T19:43:32.365Z,99880.63
2019-05-29T19:46:01.851Z,99879.20
2019-05-29T19:48:31.288Z,99886.19
2019-05-29T19:51:00.677Z,99887.65
2019-05-29T19:53:31.365Z,99890.27
2019-05-29T19:56:00.936Z,99881.88
2019-05-29T19:58:31.784Z,99875.97
2019-05-29T20:01:01.466Z,99872.94
2019-05-29T20:03:30.829Z,99875.70
2019-05-29T20:06:00.864Z,99883.86
2019-05-29T20:08:34.037Z,99885.28
2019-05-29T20:11:01.896Z,99890.08
2019-05-29T20:13:31.739Z,99888.34
2019-05-29T20:16:01.187Z,99888.89
2019-05-29T20:18:30.575Z,99897.17
2019-05-29T20:21:00.101Z,99904.96
2019-05-29T20:23:30.558Z,99903.27
2019-05-29T20:26:00.257Z,99913.66
2019-05-29T20:28:42.565Z,99916.42
2019-05-29T20:31:12.374Z,99927.67
2019-05-29T20:33:42.794Z,99924.56
2019-05-29T20:36:12.866Z,99919.61
2019-05-29T20:38:42.680Z,99916.53
2019-05-29T20:41:12.221Z,99917.83
2019-05-29T20:43:41.912Z,99923.00
2019-05-29T20:46:11.646Z,99917.83
2019-05-29T20:48:41.132Z,99919.34
2019-05-29T20:51:10.566Z,99926.09
2019-05-29T20:53:40.412Z,99919.23
2019-05-29T20:56:11.010Z,99917.30
2019-05-29T20:58:47.874Z,99923.34
2019-05-29T21:01:17.162Z,99924.65
2019-05-29T21:03:48.838Z,99916.52
2019-05-29T21:06:18.299Z,99920.40
2019-05-29T21:08:47.681Z,99928.04
2019-05-29T21:11:17.144Z,99922.41
2019-05-29T21:13:46.641Z,99926.12
2019-05-29T21:16:16.131Z,99925.02
2019-05-29T21:18:45.677Z,99929.27
2019-05-29T21:21:15.074Z,99933.91
2019-05-29T21:23:44.735Z,99930.16
2019-05-29T21:26:14.190Z,99925.28
2019-05-29T21:28:50.612Z,99922.52
2019-05-29T21:31:18.000Z,99927.77
2019-05-29T21:33:49.377Z,99933.63
2019-05-29T21:36:19.266Z,99931.75
2019-05-29T21:38:48.657Z,99937.41
2019-05-29T21:41:18.262Z,99940.92
2019-05-29T21:43:53.373Z,99938.94
2019-05-29T21:46:22.816Z,99942.64
2019-05-29T21:48:52.290Z,99948.65
2019-05-29T21:51:21.853Z,99947.48
2019-05-29T21:53:51.213Z,99956.20
2019-05-29T21:56:20.665Z,99957.78
2019-05-29T21:59:03.419Z,99960.07
2019-05-29T22:01:28.823Z,99956.28
2019-05-29T22:03:58.446Z,99956.88
2019-05-29T22:06:28.008Z,99959.17
2019-05-29T22:08:57.595Z,99967.30
2019-05-29T22:11:26.976Z,99968.52
2019-05-29T22:13:56.608Z,99974.70
2019-05-29T22:16:26.845Z,99975.68
2019-05-29T22:18:57.026Z,99986.60
2019-05-29T22:21:27.545Z,99988.27
2019-05-29T22:23:57.186Z,99991.28
2019-05-29T22:26:26.704Z,99992.38
2019-05-29T22:28:57.334Z,99987.02
2019-05-29T22:31:27.633Z,99997.97
2019-05-29T22:33:58.047Z,99997.61
2019-05-29T22:36:27.625Z,99998.86
2019-05-29T22:38:59.568Z,100000.50
2019-05-29T22:41:29.229Z,100003.73
2019-05-29T22:44:02.620Z,100005.72
2019-05-29T22:46:32.300Z,100010.54
2019-05-29T22:49:02.100Z,100014.23
2019-05-29T22:51:31.571Z,100010.80
2019-05-29T22:54:02.067Z,100007.50
2019-05-29T22:56:31.595Z,100007.77
2019-05-29T22:59:02.144Z,100002.73
2019-05-29T23:01:31.997Z,100004.76
2019-05-29T23:04:02.512Z,100003.87
2019-05-29T23:06:32.116Z,100007.70
2019-05-29T23:09:02.577Z,100009.98
2019-05-29T23:11:32.001Z,100016.84
2019-05-29T23:14:02.554Z,100018.73
2019-05-29T23:16:32.179Z,100018.29
2019-05-29T23:19:02.773Z,100018.09
2019-05-29T23:21:33.216Z,100019.99
2019-05-29T23:24:03.752Z,100019.80
2019-05-29T23:26:33.229Z,100025.75
2019-05-29T23:29:03.903Z,100028.85
2019-05-29T23:31:33.422Z,100026.59
2019-05-29T23:34:03.316Z,100029.11
2019-05-29T23:36:32.857Z,100029.38
2019-05-29T23:39:03.399Z,100027.78
2019-05-29T23:41:33.027Z,100035.52
2019-05-29T23:44:03.708Z,100033.78
2019-05-29T23:46:33.304Z,100026.89
2019-05-29T23:49:03.991Z,100032.48
2019-05-29T23:51:33.514Z,100027.05
2019-05-29T23:54:03.936Z,100024.44
2019-05-29T23:56:33.379Z,100030.16
2019-05-29T23:59:04.024Z,100028.03
